Flight Track Log - Related Links

Times and Time Zones

All times are in EST time to prevent confusion due to time zone crossing. See the AFL150 flight status page for this flight to view local times or setup timezone preferences in your user account.

Time Position Orientation Groundspeed Altitude Reporting Facility
EST Latitude Longitude Course Direction KTS MPH feet Rate Location/Type
Thu 09:31:00 56.0736 37.1377 307° West  Level Estimated
Thu 09:32:00 56.1415 36.9734 307° West  Level Estimated
Thu 09:33:00 56.2091 36.8084 306° West  Level Estimated
Thu 09:34:00 56.2766 36.6429 306° West  Level Estimated
Thu 09:35:00 56.3438 36.4767 306° West  Level Estimated
Thu 09:36:00 56.4109 36.3100 306° West  Level Estimated
Thu 09:37:00 56.4776 36.1427 306° West  Level Estimated
Thu 09:38:00 56.5442 35.9748 306° West  Level Estimated
Thu 09:39:00 56.6105 35.8063 306° West  Level Estimated
Thu 09:40:00 56.6766 35.6373 305° West  Level Estimated
Thu 09:41:00 56.7425 35.4676 305° West  Level Estimated
Thu 09:42:00 56.8082 35.2973 305° West  Level Estimated
Thu 09:43:00 56.8736 35.1265 305° West  Level Estimated
Thu 09:44:00 56.9388 34.9550 305° West  Level Estimated
Thu 09:45:00 57.0037 34.7830 305° West  Level Estimated
Thu 09:46:00 57.0684 34.6103 305° West  Level Estimated
Thu 09:47:00 57.1329 34.4370 304° West  Level Estimated
Thu 09:48:00 57.1971 34.2632 304° West  Level Estimated
Thu 09:49:00 57.2611 34.0887 304° West  Level Estimated
Thu 09:50:00 57.3248 33.9136 304° West  Level Estimated
Thu 09:51:00 57.3883 33.7380 304° West  Level Estimated
Thu 09:52:00 57.4516 33.5617 304° West  Level Estimated
Thu 09:53:00 57.5146 33.3848 304° West  Level Estimated
Thu 09:54:00 57.5765 33.2096 303° West  Level Estimated
Thu 09:55:00 57.6382 33.0338 303° West  Level Estimated
Thu 09:56:00 57.6997 32.8574 303° West  Level Estimated
Thu 09:57:00 57.7609 32.6805 303° West  Level Estimated
Thu 09:58:00 57.8219 32.5029 303° West  Level Estimated
Thu 09:59:00 57.8826 32.3247 303° West  Level Estimated
Thu 10:00:00 57.9430 32.1459 303° West  Level Estimated
Thu 10:01:00 58.0033 31.9665 302° West  Level Estimated
Thu 10:02:00 58.0632 31.7866 302° West  Level Estimated
Thu 10:03:00 58.1229 31.6060 302° West  Level Estimated
Thu 10:04:00 58.1824 31.4248 302° West  Level Estimated
Thu 10:05:00 58.2416 31.2430 302° West  Level Estimated
Thu 10:06:00 58.3005 31.0606 302° West  Level Estimated
Thu 10:07:00 58.3591 30.8776 301° West  Level Estimated
Thu 10:08:00 58.4176 30.6939 301° West  Level Estimated
Thu 10:09:00 58.4757 30.5097 301° West  Level Estimated
Thu 10:10:00 58.5336 30.3249 301° West  Level Estimated
Thu 10:11:00 58.5912 30.1394 301° West  Level Estimated
Thu 10:12:00 58.6485 29.9534 301° West  Level Estimated
Thu 10:13:00 58.7056 29.7667 301° West  Level Estimated
Thu 10:14:00 58.7624 29.5794 300° West  Level Estimated
Thu 10:15:00 58.8189 29.3915 300° West  Level Estimated
Thu 10:16:00 58.8752 29.2030 300° West  Level Estimated
Thu 10:17:00 58.9312 29.0139 300° West  Level Estimated
Thu 10:18:00 58.9869 28.8242 300° West  Level Estimated
Thu 10:19:00 59.0423 28.6338 300° West  Level Estimated
Thu 10:20:00 59.0975 28.4429 299° West  Level Estimated
Thu 10:21:00 59.1523 28.2513 299° West  Level Estimated
Thu 10:22:00 59.2069 28.0591 299° West  Level Estimated
Thu 10:23:00 59.2612 27.8663 299° West  Level Estimated
Thu 10:24:00 59.3152 27.6729 299° West  Level Estimated
Thu 10:25:00 59.3689 27.4789 299° West  Level Estimated
Thu 10:26:00 59.4224 27.2843 298° West  Level Estimated
Thu 10:27:00 59.4755 27.0890 298° West  Level Estimated
Thu 10:28:00 59.5284 26.8932 298° West  Level Estimated
Thu 10:29:00 59.5809 26.6967 298° West  Level Estimated
Thu 10:30:00 59.6332 26.4996 298° West  Level Estimated
Thu 10:31:00 59.6852 26.3019 298° West  Level Estimated
Thu 10:32:00 59.7368 26.1036 297° West  Level Estimated
Thu 10:33:00 59.7882 25.9046 297° West  Level Estimated
Thu 10:34:00 59.8393 25.7051 297° West  Level Estimated
Thu 10:35:00 59.8900 25.5049 297° West  Level Estimated
Thu 10:36:00 59.9405 25.3042 297° West  Level Estimated
Thu 10:37:00 59.9907 25.1028 297° West  Level Estimated
Thu 10:38:00 60.0405 24.9008 296° West  Level Estimated
Thu 10:39:00 60.0901 24.6982 296° West  Level Estimated
Thu 10:40:00 60.1393 24.4950 296° West  Level Estimated
Thu 10:41:00 60.1882 24.2912 296° West  Level Estimated
Thu 10:42:00 60.2368 24.0868 296° West  Level Estimated
Thu 10:43:00 60.2851 23.8818 295° West  Level Estimated
Thu 10:44:00 60.3331 23.6762 295° West  Level Estimated
Thu 10:45:00 60.3807 23.4699 295° West  Level Estimated
Thu 10:46:00 60.4281 23.2631 295° West  Level Estimated
Thu 10:47:00 60.4751 23.0557 295° West  Level Estimated
Thu 10:48:00 60.5218 22.8477 295° West  Level Estimated
Thu 10:49:00 60.5681 22.6390 294° West  Level Estimated
Thu 10:50:00 60.6142 22.4298 294° West  Level Estimated
Thu 10:51:00 60.6599 22.2200 294° West  Level Estimated
Thu 10:52:00 60.7052 22.0096 294° West  Level Estimated
Thu 10:53:00 60.7503 21.7986 294° West  Level Estimated
Thu 10:54:00 60.7950 21.5870 293° West  Level Estimated
Thu 10:55:00 60.8394 21.3748 293° West  Level Estimated
Thu 10:56:00 60.8834 21.1620 293° West  Level Estimated
Thu 10:57:00 60.9272 20.9486 293° West  Level Estimated
Thu 10:58:00 60.9705 20.7347 293° West  Level Estimated
Thu 10:59:00 61.0135 20.5202 293° West  Level Estimated
Thu 11:00:00 61.0562 20.3050 292° West  Level Estimated
Thu 11:01:00 61.0986 20.0894 292° West  Level Estimated
Thu 11:02:00 61.1406 19.8731 292° West  Level Estimated
Thu 11:03:00 61.1823 19.6563 292° West  Level Estimated
Thu 11:04:00 61.2236 19.4389 292° West  Level Estimated
Thu 11:05:00 61.2645 19.2209 291° West  Level Estimated
Thu 11:06:00 61.3051 19.0023 291° West  Level Estimated
Thu 11:07:00 61.3454 18.7832 291° West  Level Estimated
Thu 11:08:00 61.3853 18.5636 291° West  Level Estimated
Thu 11:09:00 61.4249 18.3433 291° West  Level Estimated
Thu 11:10:00 61.4641 18.1225 290° West  Level Estimated
Thu 11:11:00 61.5029 17.9012 290° West  Level Estimated
Thu 11:12:00 61.5414 17.6793 290° West  Level Estimated
Thu 11:13:00 61.5795 17.4569 290° West  Level Estimated
Thu 11:14:00 61.6173 17.2339 290° West  Level Estimated
Thu 11:15:00 61.6547 17.0104 289° West  Level Estimated
Thu 11:16:00 61.6917 16.7863 289° West  Level Estimated
Thu 11:17:00 61.7283 16.5617 289° West  Level Estimated
Thu 11:18:00 61.7646 16.3366 289° West  Level Estimated
Thu 11:19:00 61.8005 16.1109 289° West  Level Estimated
Thu 11:20:00 61.8361 15.8847 289° West  Level Estimated
Thu 11:21:00 61.8713 15.6580 288° West  Level Estimated
Thu 11:22:00 61.9061 15.4308 288° West  Level Estimated
Thu 11:23:00 61.9405 15.2030 288° West  Level Estimated
Thu 11:24:00 61.9746 14.9748 288° West  Level Estimated
Thu 11:25:00 62.0082 14.7460 288° West  Level Estimated
Thu 11:26:00 62.0415 14.5168 287° West  Level Estimated
Thu 11:27:00 62.0744 14.2870 287° West  Level Estimated
Thu 11:28:00 62.1070 14.0568 287° West  Level Estimated
Thu 11:29:00 62.1391 13.8260 287° West  Level Estimated
Thu 11:30:00 62.1709 13.5948 286° West  Level Estimated
Thu 11:31:00 62.2023 13.3631 286° West  Level Estimated
Thu 11:32:00 62.2332 13.1308 286° West  Level Estimated
Thu 11:33:00 62.2639 12.8982 286° West  Level Estimated
Thu 11:34:00 62.2941 12.6650 286° West  Level Estimated
Thu 11:35:00 62.3239 12.4314 285° West  Level Estimated
Thu 11:36:00 62.3533 12.1974 285° West  Level Estimated
Thu 11:37:00 62.3823 11.9628 285° West  Level Estimated
Thu 11:38:00 62.4110 11.7278 285° West  Level Estimated
Thu 11:39:00 62.4392 11.4924 285° West  Level Estimated
Thu 11:40:00 62.4671 11.2565 284° West  Level Estimated
Thu 11:41:00 62.4945 11.0202 284° West  Level Estimated
Thu 11:42:00 62.5216 10.7835 284° West  Level Estimated
Thu 11:43:00 62.5482 10.5463 284° West  Level Estimated
Thu 11:44:00 62.5745 10.3088 284° West  Level Estimated
Thu 11:45:00 62.6003 10.0708 283° West  Level Estimated
Thu 11:46:00 62.6257 9.8323 283° West  Level Estimated
Thu 11:47:00 62.6508 9.5935 283° West  Level Estimated
Thu 11:48:00 62.6754 9.3543 283° West  Level Estimated
Thu 11:49:00 62.6996 9.1147 283° West  Level Estimated
Thu 11:50:00 62.7234 8.8747 282° West  Level Estimated
Thu 11:51:00 62.7468 8.6343 282° West  Level Estimated
Thu 11:52:00 62.7698 8.3935 282° West  Level Estimated
Thu 11:53:00 62.7924 8.1524 282° West  Level Estimated
Thu 11:54:00 62.8145 7.9109 281° West  Level Estimated
Thu 11:55:00 62.8363 7.6690 281° West  Level Estimated
Thu 11:56:00 62.8576 7.4268 281° West  Level Estimated
Thu 11:57:00 62.8785 7.1842 281° West  Level Estimated
Thu 11:58:00 62.8990 6.9413 281° West  Level Estimated
Thu 11:59:00 62.9191 6.6981 280° West  Level Estimated
Thu 12:00:00 62.9387 6.4545 280° West  Level Estimated
Thu 12:01:00 62.9580 6.2106 280° West  Level Estimated
Thu 12:02:00 62.9768 5.9664 280° West  Level Estimated
Thu 12:03:00 62.9952 5.7218 280° West  Level Estimated
Thu 12:04:00 63.0132 5.4770 279° West  Level Estimated
Thu 12:05:00 63.0307 5.2319 279° West  Level Estimated
Thu 12:06:00 63.0478 4.9864 279° West  Level Estimated
Thu 12:07:00 63.0645 4.7407 279° West  Level Estimated
Thu 12:08:00 63.0808 4.4947 278° West  Level Estimated
Thu 12:09:00 63.0966 4.2485 278° West  Level Estimated
Thu 12:10:00 63.1121 4.0019 278° West  Level Estimated
Thu 12:11:00 63.1271 3.7552 278° West  Level Estimated
Thu 12:12:00 63.1416 3.5081 278° West  Level Estimated
Thu 12:13:00 63.1558 3.2608 277° West  Level Estimated
Thu 12:14:00 63.1694 3.0133 277° West  Level Estimated
Thu 12:15:00 63.1827 2.7656 277° West  Level Estimated
Thu 12:16:00 63.1956 2.5176 277° West  Level Estimated
Thu 12:17:00 63.2080 2.2694 276° West  Level Estimated
Thu 12:18:00 63.2199 2.0210 276° West  Level Estimated
Thu 12:19:00 63.2315 1.7724 276° West  Level Estimated
Thu 12:20:00 63.2426 1.5236 276° West  Level Estimated
Thu 12:21:00 63.2533 1.2746 276° West  Level Estimated
Thu 12:22:00 63.2635 1.0255 275° West  Level Estimated
Thu 12:23:00 63.2733 0.7761 275° West  Level Estimated
Thu 12:24:00 63.2827 0.5266 275° West  Level Estimated
Thu 12:25:00 63.2916 0.2770 275° West  Level Estimated
Thu 12:26:00 63.3001 0.0272 274° West  Level Estimated
Thu 12:27:00 63.3081 -0.2228 274° West  Level Estimated
Thu 12:28:00 63.3157 -0.4729 274° West  Level Estimated
Thu 12:29:00 63.3229 -0.7231 274° West  Level Estimated
Thu 12:30:00 63.3297 -0.9734 274° West  Level Estimated
Thu 12:31:00 63.3360 -1.2239 273° West  Level Estimated
Thu 12:32:00 63.3418 -1.4744 273° West  Level Estimated
Thu 12:33:00 63.3472 -1.7251 273° West  Level Estimated
Thu 12:34:00 63.3522 -1.9758 273° West  Level Estimated
Thu 12:35:00 63.3568 -2.2267 272° West  Level Estimated
Thu 12:36:00 63.3609 -2.4776 272° West  Level Estimated
Thu 12:37:00 63.3645 -2.7286 272° West  Level Estimated
Thu 12:38:00 63.3677 -2.9796 272° West  Level Estimated
Thu 12:39:00 63.3705 -3.2307 272° West  Level Estimated
Thu 12:40:00 63.3729 -3.4818 271° West  Level Estimated
Thu 12:41:00 63.3748 -3.7330 271° West  Level Estimated
Thu 12:42:00 63.3762 -3.9842 271° West  Level Estimated
Thu 12:43:00 63.3772 -4.2354 271° West  Level Estimated
Thu 12:44:00 63.3778 -4.4866 270° West  Level Estimated
Thu 12:45:00 63.3779 -4.7379 270° West  Level Estimated
Thu 12:46:00 63.3776 -4.9891 270° West  Level Estimated
Thu 12:47:00 63.3769 -5.2403 270° West  Level Estimated
Thu 12:48:00 63.3757 -5.4915 270° West  Level Estimated
Thu 12:49:00 63.3741 -5.7427 269° West  Level Estimated
Thu 12:50:00 63.3720 -5.9939 269° West  Level Estimated
Thu 12:51:00 63.3695 -6.2450 269° West  Level Estimated
Thu 12:52:00 63.3665 -6.4961 269° West  Level Estimated
Thu 12:53:00 63.3631 -6.7471 268° West  Level Estimated
Thu 12:54:00 63.3593 -6.9980 268° West  Level Estimated
Thu 12:55:00 63.3550 -7.2489 268° West  Level Estimated
Thu 12:56:00 63.3503 -7.4997 268° West  Level Estimated
Thu 12:57:00 63.3451 -7.7504 267° West  Level Estimated
Thu 12:58:00 63.3395 -8.0010 267° West  Level Estimated
Thu 12:59:00 63.3335 -8.2516 267° West  Level Estimated
Thu 13:00:00 63.3270 -8.5020 267° West  Level Estimated
Thu 13:01:00 63.3201 -8.7523 267° West  Level Estimated
Thu 13:02:00 63.3127 -9.0024 266° West  Level Estimated
Thu 13:03:00 63.3049 -9.2525 266° West  Level Estimated
Thu 13:04:00 63.2967 -9.5024 266° West  Level Estimated
Thu 13:05:00 63.2880 -9.7521 266° West  Level Estimated
Thu 13:06:00 63.2789 -10.0017 265° West  Level Estimated
Thu 13:07:00 63.2694 -10.2511 265° West  Level Estimated
Thu 13:08:00 63.2594 -10.5004 265° West  Level Estimated
Thu 13:09:00 63.2490 -10.7495 265° West  Level Estimated
Thu 13:10:00 63.2381 -10.9984 265° West  Level Estimated
Thu 13:11:00 63.2269 -11.2471 264° West  Level Estimated
Thu 13:12:00 63.2151 -11.4957 264° West  Level Estimated
Thu 13:13:00 63.2030 -11.7440 264° West  Level Estimated
Thu 13:14:00 63.1904 -11.9921 264° West  Level Estimated
Thu 13:15:00 63.1774 -12.2399 263° West  Level Estimated
Thu 13:16:00 63.1640 -12.4876 263° West  Level Estimated
Thu 13:17:00 63.1501 -12.7350 263° West  Level Estimated
Thu 13:18:00 63.1358 -12.9822 263° West  Level Estimated
Thu 13:19:00 63.1210 -13.2291 263° West  Level Estimated
Thu 13:20:00 63.1059 -13.4758 262° West  Level Estimated
Thu 13:21:00 63.0903 -13.7222 262° West  Level Estimated
Thu 13:22:00 63.0743 -13.9684 262° West  Level Estimated
Thu 13:23:00 63.0578 -14.2143 262° West  Level Estimated
Thu 13:24:00 63.0409 -14.4599 261° West  Level Estimated
Thu 13:25:00 63.0236 -14.7052 261° West  Level Estimated
Thu 13:26:00 63.0059 -14.9502 261° West  Level Estimated
Thu 13:27:00 62.9878 -15.1949 261° West  Level Estimated
Thu 13:28:00 62.9692 -15.4393 261° West  Level Estimated
Thu 13:29:00 62.9502 -15.6834 260° West  Level Estimated
Thu 13:30:00 62.9308 -15.9272 260° West  Level Estimated
Thu 13:31:00 62.9110 -16.1706 260° West  Level Estimated
Thu 13:32:00 62.8907 -16.4137 260° West  Level Estimated
Thu 13:33:00 62.8701 -16.6565 260° West  Level Estimated
Thu 13:34:00 62.8490 -16.8989 259° West  Level Estimated
Thu 13:35:00 62.8275 -17.1410 259° West  Level Estimated
Thu 13:36:00 62.8056 -17.3827 259° West  Level Estimated
Thu 13:37:00 62.7832 -17.6241 259° West  Level Estimated
Thu 13:38:00 62.7605 -17.8651 258° West  Level Estimated
Thu 13:39:00 62.7374 -18.1057 258° West  Level Estimated
Thu 13:40:00 62.7138 -18.3459 258° West  Level Estimated
Thu 13:41:00 62.6898 -18.5858 258° West  Level Estimated
Thu 13:42:00 62.6655 -18.8252 258° West  Level Estimated
Thu 13:43:00 62.6407 -19.0643 257° West  Level Estimated
Thu 13:44:00 62.6155 -19.3029 257° West  Level Estimated
Thu 13:45:00 62.5899 -19.5412 257° West  Level Estimated
Thu 13:46:00 62.5639 -19.7790 257° West  Level Estimated
Thu 13:47:00 62.5375 -20.0164 257° West  Level Estimated
Thu 13:48:00 62.5107 -20.2534 256° West  Level Estimated
Thu 13:49:00 62.4834 -20.4900 256° West  Level Estimated
Thu 13:50:00 62.4558 -20.7261 256° West  Level Estimated
Thu 13:51:00 62.4278 -20.9618 256° West  Level Estimated
Thu 13:52:00 62.3994 -21.1971 255° West  Level Estimated
Thu 13:53:00 62.3706 -21.4319 255° West  Level Estimated
Thu 13:54:00 62.3414 -21.6662 255° West  Level Estimated
Thu 13:55:00 62.3118 -21.9001 255° West  Level Estimated
Thu 13:56:00 62.2819 -22.1335 255° West  Level Estimated
Thu 13:57:00 62.2515 -22.3665 254° West  Level Estimated
Thu 13:58:00 62.2207 -22.5989 254° West  Level Estimated
Thu 13:59:00 62.1896 -22.8310 254° West  Level Estimated
Thu 14:00:00 62.1581 -23.0625 254° West  Level Estimated
Thu 14:01:00 62.1261 -23.2935 254° West  Level Estimated
Thu 14:02:00 62.0938 -23.5241 253° West  Level Estimated
Thu 14:03:00 62.0611 -23.7541 253° West  Level Estimated
Thu 14:04:00 62.0281 -23.9837 253° West  Level Estimated
Thu 14:05:00 61.9946 -24.2128 253° West  Level Estimated
Thu 14:06:00 61.9608 -24.4413 253° West  Level Estimated
Thu 14:07:00 61.9266 -24.6694 252° West  Level Estimated
Thu 14:08:00 61.8920 -24.8969 252° West  Level Estimated
Thu 14:09:00 61.8570 -25.1239 252° West  Level Estimated
Thu 14:10:00 61.8217 -25.3504 252° West  Level Estimated
Thu 14:11:00 61.7860 -25.5764 252° West  Level Estimated
Thu 14:12:00 61.7499 -25.8018 251° West  Level Estimated
Thu 14:13:00 61.7135 -26.0268 251° West  Level Estimated
Thu 14:14:00 61.6767 -26.2511 251° West  Level Estimated
Thu 14:15:00 61.6395 -26.4750 251° West  Level Estimated
Thu 14:16:00 61.6020 -26.6983 251° West  Level Estimated
Thu 14:17:00 61.5641 -26.9210 250° West  Level Estimated
Thu 14:18:00 61.5258 -27.1433 250° West  Level Estimated
Thu 14:19:00 61.4872 -27.3649 250° West  Level Estimated
Thu 14:20:00 61.4482 -27.5861 250° West  Level Estimated
Thu 14:21:00 61.4089 -27.8066 250° West  Level Estimated
Thu 14:22:00 61.3692 -28.0266 249° West  Level Estimated
Thu 14:23:00 61.3291 -28.2460 249° West  Level Estimated
Thu 14:24:00 61.2887 -28.4649 249° West  Level Estimated
Thu 14:25:00 61.2480 -28.6832 249° West  Level Estimated
Thu 14:26:00 61.2069 -28.9010 249° West  Level Estimated
Thu 14:27:00 61.1654 -29.1182 248° West  Level Estimated
Thu 14:28:00 61.1236 -29.3348 248° West  Level Estimated
Thu 14:29:00 61.0815 -29.5508 248° West  Level Estimated
Thu 14:30:00 61.0390 -29.7663 248° West  Level Estimated
Thu 14:31:00 60.9962 -29.9811 248° West  Level Estimated
Thu 14:32:00 60.9530 -30.1954 248° West  Level Estimated
Thu 14:33:00 60.9095 -30.4091 247° West  Level Estimated
Thu 14:34:00 60.8656 -30.6222 247° West  Level Estimated
Thu 14:35:00 60.8214 -30.8348 247° West  Level Estimated
Thu 14:36:00 60.7769 -31.0467 247° West  Level Estimated
Thu 14:37:00 60.7321 -31.2581 247° West  Level Estimated
Thu 14:38:00 60.6869 -31.4689 246° West  Level Estimated
Thu 14:39:00 60.6414 -31.6790 246° West  Level Estimated
Thu 14:40:00 60.5955 -31.8886 246° West  Level Estimated
Thu 14:41:00 60.5494 -32.0976 246° West  Level Estimated
Thu 14:42:00 60.5029 -32.3060 246° West  Level Estimated
Thu 14:43:00 60.4560 -32.5138 246° West  Level Estimated
Thu 14:44:00 60.4089 -32.7210 245° Southwest  Level Estimated
Thu 14:45:00 60.3614 -32.9275 245° Southwest  Level Estimated
Thu 14:46:00 60.3137 -33.1335 245° Southwest  Level Estimated
Thu 14:47:00 60.2656 -33.3389 245° Southwest  Level Estimated
Thu 14:48:00 60.2171 -33.5437 245° Southwest  Level Estimated
Thu 14:49:00 60.1684 -33.7478 244° Southwest  Level Estimated
Thu 14:50:00 60.1194 -33.9514 244° Southwest  Level Estimated
Thu 14:51:00 60.0700 -34.1543 244° Southwest  Level Estimated
Thu 14:52:00 60.0204 -34.3567 244° Southwest  Level Estimated
Thu 14:53:00 59.9704 -34.5584 244° Southwest  Level Estimated
Thu 14:54:00 59.9201 -34.7595 244° Southwest  Level Estimated
Thu 14:55:00 59.8695 -34.9601 243° Southwest  Level Estimated
Thu 14:56:00 59.8186 -35.1600 243° Southwest  Level Estimated
Thu 14:57:00 59.7674 -35.3593 243° Southwest  Level Estimated
Thu 14:58:00 59.7160 -35.5579 243° Southwest  Level Estimated
Thu 14:59:00 59.6642 -35.7560 243° Southwest  Level Estimated
Thu 15:00:00 59.6121 -35.9535 243° Southwest  Level Estimated
Thu 15:01:00 59.5597 -36.1503 242° Southwest  Level Estimated
Thu 15:02:00 59.5070 -36.3465 242° Southwest  Level Estimated
Thu 15:03:00 59.4540 -36.5422 242° Southwest  Level Estimated
Thu 15:04:00 59.4008 -36.7372 242° Southwest  Level Estimated
Thu 15:05:00 59.3472 -36.9315 242° Southwest  Level Estimated
Thu 15:06:00 59.2934 -37.1253 242° Southwest  Level Estimated
Thu 15:07:00 59.2393 -37.3185 241° Southwest  Level Estimated
Thu 15:08:00 59.1818 -37.5216 241° Southwest  Level Estimated
Thu 15:09:00 59.1241 -37.7241 241° Southwest  Level Estimated
Thu 15:10:00 59.0661 -37.9258 241° Southwest  Level Estimated
Thu 15:11:00 59.0077 -38.1269 241° Southwest  Level Estimated
Thu 15:12:00 58.9490 -38.3274 240° Southwest  Level Estimated
Thu 15:13:00 58.8900 -38.5271 240° Southwest  Level Estimated
Thu 15:14:00 58.8307 -38.7261 240° Southwest  Level Estimated
Thu 15:15:00 58.7712 -38.9245 240° Southwest  Level Estimated
Thu 15:16:00 58.7113 -39.1222 240° Southwest  Level Estimated
Thu 15:17:00 58.6511 -39.3191 240° Southwest  Level Estimated
Thu 15:18:00 58.5906 -39.5155 239° Southwest  Level Estimated
Thu 15:19:00 58.5298 -39.7111 239° Southwest  Level Estimated
Thu 15:20:00 58.4687 -39.9061 239° Southwest  Level Estimated
Thu 15:21:00 58.4073 -40.1003 239° Southwest  Level Estimated
Thu 15:22:00 58.3456 -40.2939 239° Southwest  Level Estimated
Thu 15:23:00 58.2836 -40.4869 239° Southwest  Level Estimated
Thu 15:24:00 58.2214 -40.6791 238° Southwest  Level Estimated
Thu 15:25:00 58.1588 -40.8707 238° Southwest  Level Estimated
Thu 15:26:00 58.0960 -41.0616 238° Southwest  Level Estimated
Thu 15:27:00 58.0329 -41.2518 238° Southwest  Level Estimated
Thu 15:28:00 57.9695 -41.4414 238° Southwest  Level Estimated
Thu 15:29:00 57.9058 -41.6303 238° Southwest  Level Estimated
Thu 15:30:00 57.8418 -41.8185 237° Southwest  Level Estimated
Thu 15:31:00 57.7776 -42.0061 237° Southwest  Level Estimated
Thu 15:32:00 57.7131 -42.1929 237° Southwest  Level Estimated
Thu 15:33:00 57.6483 -42.3792 237° Southwest  Level Estimated
Thu 15:34:00 57.5832 -42.5647 237° Southwest  Level Estimated
Thu 15:35:00 57.5179 -42.7496 237° Southwest  Level Estimated
Thu 15:36:00 57.4523 -42.9338 237° Southwest  Level Estimated
Thu 15:37:00 57.3864 -43.1174 236° Southwest  Level Estimated
Thu 15:38:00 57.3203 -43.3003 236° Southwest  Level Estimated
Thu 15:39:00 57.2539 -43.4825 236° Southwest  Level Estimated
Thu 15:40:00 57.1872 -43.6641 236° Southwest  Level Estimated
Thu 15:41:00 57.1203 -43.8450 236° Southwest  Level Estimated
Thu 15:42:00 57.0531 -44.0253 236° Southwest  Level Estimated
Thu 15:43:00 56.9857 -44.2049 235° Southwest  Level Estimated
Thu 15:44:00 56.9180 -44.3839 235° Southwest  Level Estimated
Thu 15:45:00 56.8500 -44.5623 235° Southwest  Level Estimated
Thu 15:46:00 56.7818 -44.7399 235° Southwest  Level Estimated
Thu 15:47:00 56.7133 -44.9170 235° Southwest  Level Estimated
Thu 15:48:00 56.6446 -45.0934 235° Southwest  Level Estimated
Thu 15:49:00 56.5757 -45.2691 235° Southwest  Level Estimated
Thu 15:50:00 56.5065 -45.4442 234° Southwest  Level Estimated
Thu 15:51:00 56.4370 -45.6187 234° Southwest  Level Estimated
Thu 15:52:00 56.3673 -45.7925 234° Southwest  Level Estimated
Thu 15:53:00 56.2974 -45.9657 234° Southwest  Level Estimated
Thu 15:54:00 56.2272 -46.1383 234° Southwest  Level Estimated
Thu 15:55:00 56.1568 -46.3102 234° Southwest  Level Estimated
Thu 15:56:00 56.0862 -46.4815 234° Southwest  Level Estimated
Thu 15:57:00 56.0153 -46.6522 233° Southwest  Level Estimated
Thu 15:58:00 55.9441 -46.8222 233° Southwest  Level Estimated
Thu 15:59:00 55.8728 -46.9916 233° Southwest  Level Estimated
Thu 16:00:00 55.8012 -47.1604 233° Southwest  Level Estimated
Thu 16:00:31 62.6500 -58.1833 232° Southwest 420 483 36,000  Level Gander Center
Thu 16:01:00 55.7294 -47.3286 233° Southwest  Level Estimated
Thu 16:01:31 62.6000 -58.3333 234° Southwest 430 495 36,000  Level Gander Center
Thu 16:02:00 55.6573 -47.4961 233° Southwest  Level Estimated
Thu 16:02:31 62.5333 -58.5500 236° Southwest 430 495 36,000  Level Gander Center
Thu 16:03:00 55.5850 -47.6631 233° Southwest  Level Estimated
Thu 16:03:31 62.4333 -58.7833 227° Southwest 430 495 36,000  Level Gander Center
Thu 16:04:00 55.5125 -47.8294 232° Southwest  Level Estimated
Thu 16:04:31 62.3833 -58.9500 237° Southwest 430 495 36,000  Level Gander Center
Thu 16:05:00 55.4398 -47.9951 232° Southwest  Level Estimated
Thu 16:05:31 62.3167 -59.1500 234° Southwest 430 495 36,000  Level Gander Center
Thu 16:06:00 55.3669 -48.1602 232° Southwest  Level Estimated
Thu 16:06:31 62.2333 -59.3667 231° Southwest 430 495 36,000  Level Gander Center
Thu 16:07:31 62.1667 -59.5500 232° Southwest 420 483 36,000  Level Gander Center
Thu 16:08:29 62.0833 -59.7000 220° Southwest 420 483 36,000  Level Montreal Center
Thu 16:09:29 62.0000 -59.8833 226° Southwest 420 483 36,000  Level Montreal Center
Thu 16:10:29 61.9333 -60.1000 237° Southwest 420 483 36,000  Level Montreal Center
Thu 16:11:29 61.8500 -60.3000 229° Southwest 420 483 36,000  Level Montreal Center
Thu 16:12:29 61.7833 -60.4667 230° Southwest 420 483 36,000  Level Montreal Center
Thu 16:13:29 61.7000 -60.6500 226° Southwest 420 483 36,000  Level Montreal Center
Thu 16:14:29 61.6500 -60.8667 244° Southwest 420 483 36,000  Level Montreal Center
Thu 16:15:29 61.5667 -61.0500 226° Southwest 420 483 36,000  Level Montreal Center
Thu 16:16:29 61.4833 -61.2333 226° Southwest 420 483 36,000  Level Montreal Center
Thu 16:17:29 61.4167 -61.4000 230° Southwest 420 483 36,000  Level Montreal Center
Thu 16:18:29 61.3333 -61.6167 231° Southwest 420 483 36,000  Level Montreal Center
Thu 16:19:29 61.2667 -61.7833 230° Southwest 420 483 36,000  Level Montreal Center
Thu 16:20:29 61.1833 -62.0000 231° Southwest 420 483 36,000  Level Montreal Center
Thu 16:21:29 61.1167 -62.1333 224° Southwest 420 483 36,000  Level Montreal Center
Thu 16:22:29 61.0333 -62.3500 232° Southwest 420 483 36,000  Level Montreal Center
Thu 16:23:29 60.9500 -62.5333 227° Southwest 420 483 36,000  Level Montreal Center
Thu 16:24:29 60.8833 -62.7000 231° Southwest 420 483 36,000  Level Montreal Center
Thu 16:25:29 60.8000 -62.8667 224° Southwest 400 460 36,000  Level Montreal Center
Thu 16:27:29 60.6500 -63.2333 230° Southwest 420 483 36,000  Level Montreal Center
Thu 16:28:29 60.5667 -63.4000 225° Southwest 420 483 36,000  Level Montreal Center
Thu 16:29:29 60.5000 -63.5667 231° Southwest 420 483 36,000  Level Montreal Center
Thu 16:30:29 60.4167 -63.7500 227° Southwest 420 483 36,000  Level Montreal Center
Thu 16:31:29 60.3500 -63.9333 234° Southwest 420 483 36,000  Level Montreal Center
Thu 16:32:29 60.2500 -64.1000 220° Southwest 420 483 36,000  Level Montreal Center
Thu 16:33:29 60.1667 -64.2667 225° Southwest 420 483 36,000  Level Montreal Center
Thu 16:34:29 60.1000 -64.4667 236° Southwest 420 483 36,000  Level Montreal Center
Thu 16:35:29 60.0167 -64.6333 225° Southwest 420 483 36,000  Level Montreal Center
Thu 16:36:29 59.9500 -64.8000 231° Southwest 410 472 36,000  Level Montreal Center
Thu 16:37:29 59.8500 -64.9500 217° Southwest 420 483 36,000  Level Montreal Center
Thu 16:39:00 59.7418 -65.2150 231° Southwest  Level FlightAware Approximate
Thu 16:39:31 59.7000 -65.3667 231° Southwest 420 483 36,000  Level Gander Center
Thu 16:40:29 59.6167 -65.4667 211° Southwest 420 483 36,000  Level Montreal Center
Thu 16:41:29 59.5333 -65.6333 225° Southwest 420 483 36,000  Level Montreal Center
Thu 16:42:29 59.4667 -65.7833 229° Southwest 420 483 36,000  Level Montreal Center
Thu 16:43:29 59.3667 -65.9500 220° Southwest 420 483 36,000  Level Montreal Center
Thu 16:44:29 59.3000 -66.1333 235° Southwest 420 483 36,000  Level Montreal Center
Thu 16:45:29 59.2167 -66.2833 223° Southwest 420 483 36,000  Level Montreal Center
Thu 16:46:29 59.1167 -66.4500 221° Southwest 420 483 36,000  Level Montreal Center
Thu 16:47:29 59.0500 -66.6333 235° Southwest 420 483 36,000  Level Montreal Center
Thu 16:48:29 58.9667 -66.7833 223° Southwest 420 483 36,000  Level Montreal Center
Thu 16:49:29 58.8833 -66.9333 223° Southwest 420 483 36,000  Level Montreal Center
Thu 16:50:29 58.8000 -67.0833 223° Southwest 420 483 36,000  Level Montreal Center
Thu 16:51:29 58.7167 -67.2667 229° Southwest 420 483 36,000  Level Montreal Center
Thu 16:52:29 58.6333 -67.4167 223° Southwest 420 483 36,000  Level Montreal Center
Thu 16:53:29 58.5333 -67.5667 218° Southwest 420 483 36,000  Level Montreal Center
Thu 16:54:29 58.4667 -67.7167 230° Southwest 420 483 36,000  Level Montreal Center
Thu 16:55:29 58.3667 -67.9000 224° Southwest 420 483 36,000  Level Montreal Center
Thu 16:56:29 58.3000 -68.0500 230° Southwest 420 483 36,000  Level Montreal Center
Thu 16:57:29 58.2000 -68.2000 218° Southwest 430 495 36,000  Level Montreal Center
Thu 16:59:40 58.0167 -68.5667 227° Southwest 410 472 36,000  Level Gander Center
Thu 17:00:40 57.9167 -68.7000 215° Southwest 430 495 36,000  Level Gander Center
Thu 17:01:40 57.8167 -68.8333 215° Southwest 430 495 36,000  Level Gander Center
Thu 17:02:40 57.7167 -68.9667 215° Southwest 430 495 36,000  Level Gander Center
Thu 17:03:40 57.6167 -69.1167 219° Southwest 430 495 36,000  Level Gander Center
Thu 17:04:40 57.5333 -69.2167 213° Southwest 430 495 36,000  Level Gander Center
Thu 17:05:40 57.4167 -69.3500 212° Southwest 430 495 36,000  Level Gander Center
Thu 17:06:40 57.3333 -69.4833 221° Southwest 430 495 36,000  Level Gander Center
Thu 17:07:40 57.2333 -69.6167 216° Southwest 430 495 36,000  Level Gander Center
Thu 17:08:40 57.1500 -69.7500 221° Southwest 430 495 36,000  Level Gander Center
Thu 17:09:40 57.0333 -69.8833 212° Southwest 430 495 36,000  Level Gander Center
Thu 17:10:40 56.9500 -69.9833 213° Southwest 430 495 36,000  Level Gander Center
Thu 17:11:40 56.8500 -70.1167 216° Southwest 430 495 36,000  Level Gander Center
Thu 17:12:40 56.7333 -70.2500 212° Southwest 430 495 36,000  Level Gander Center
Thu 17:13:40 56.6500 -70.3833 221° Southwest 430 495 36,000  Level Gander Center
Thu 17:14:40 56.5333 -70.5000 209° Southwest 430 495 36,000  Level Gander Center
Thu 17:15:40 56.4500 -70.6000 214° Southwest 430 495 36,000  Level Gander Center
Thu 17:16:40 56.3333 -70.7333 212° Southwest 440 506 36,000  Level Gander Center
Thu 17:17:40 56.2500 -70.8500 218° Southwest 440 506 36,000  Level Gander Center
Thu 17:18:40 56.1500 -70.9833 217° Southwest 430 495 36,000  Level Gander Center
Thu 17:19:40 56.0333 -71.1000 209° Southwest 430 495 36,000  Level Gander Center
Thu 17:20:40 55.9500 -71.2333 222° Southwest 440 506 36,000  Level Gander Center
Thu 17:21:40 55.8333 -71.3333 206° Southwest 430 495 36,000  Level Gander Center
Thu 17:22:40 55.7500 -71.4500 218° Southwest 440 506 36,000  Level Gander Center
Thu 17:23:40 55.6500 -71.5833 217° Southwest 430 495 36,000  Level Gander Center
Thu 17:24:40 55.5333 -71.7000 210° Southwest 430 495 36,000  Level Gander Center
Thu 17:34:40 54.5167 -72.8667 208° Southwest 440 506 36,000  Level Gander Center
Thu 17:35:00 54.7874 -72.4083 208° Southwest  Level FlightAware Approximate
Thu 17:35:40 54.4167 -72.9833 214° Southwest 440 506 36,000  Level Gander Center
Thu 17:36:00 54.7141 -72.4764 208° Southwest  Level FlightAware Approximate
Thu 17:36:40 54.3167 -73.1000 214° Southwest 440 506 36,000  Level Gander Center
Thu 17:37:00 54.6407 -72.5442 208° Southwest  Level FlightAware Approximate
Thu 17:37:40 54.2167 -73.1833 206° Southwest 440 506 36,000  Level Gander Center
Thu 17:38:00 54.5673 -72.6117 208° Southwest  Level FlightAware Approximate
Thu 17:38:40 54.1167 -73.3000 214° Southwest 440 506 36,000  Level Gander Center
Thu 17:39:00 54.4938 -72.6790 208° Southwest  Level FlightAware Approximate
Thu 17:39:40 54.0167 -73.4167 214° Southwest 440 506 36,000  Level Gander Center
Thu 17:40:00 54.3915 -72.7723 208° Southwest  Level FlightAware Approximate
Thu 17:40:40 53.9000 -73.5167 207° Southwest 440 506 36,000  Level Gander Center
Thu 17:41:40 53.8000 -73.6333 215° Southwest 440 506 36,000  Level Gander Center
Thu 17:42:40 53.7000 -73.7500 215° Southwest 440 506 36,000  Level Gander Center
Thu 17:43:40 53.5833 -73.8500 207° Southwest 450 518 36,000  Level Gander Center
Thu 17:44:40 53.4667 -73.9333 203° Southwest 450 518 36,000  Level Gander Center
Thu 17:45:40 53.3667 -74.0167 206° Southwest 450 518 36,000  Level Gander Center
Thu 17:46:40 53.2500 -74.1333 211° Southwest 450 518 36,000  Level Gander Center
Thu 17:47:40 53.1333 -74.2000 199° South 450 518 36,000  Level Gander Center
Thu 17:48:40 53.0333 -74.3167 215° Southwest 450 518 36,000  Level Gander Center
Thu 17:49:40 52.9167 -74.3833 199° South 450 518 36,000  Level Gander Center
Thu 17:50:40 52.8000 -74.5000 211° Southwest 450 518 36,000  Level Gander Center
Thu 17:51:40 52.7000 -74.5833 207° Southwest 450 518 36,000  Level Gander Center
Thu 17:52:40 52.5833 -74.6500 199° South 450 518 36,000  Level Gander Center
Thu 17:53:40 52.4667 -74.7500 208° Southwest 450 518 36,000  Level Gander Center
Thu 17:54:40 52.3500 -74.8333 204° Southwest 450 518 36,000  Level Gander Center
Thu 17:55:40 52.2500 -74.9333 211° Southwest 450 518 36,000  Level Gander Center
Thu 17:56:40 52.1333 -75.0167 204° Southwest 450 518 36,000  Level Gander Center
Thu 17:57:40 52.0167 -75.1167 208° Southwest 450 518 36,000  Level Gander Center
Thu 17:58:40 51.9167 -75.1833 202° Southwest 450 518 36,000  Level Gander Center
Thu 17:59:40 51.8000 -75.3000 212° Southwest 450 518 36,000  Level Gander Center
Thu 18:07:48 50.9000 -75.9333 206° Southwest 440 506 36,000  Level Montreal Center
Thu 18:08:00 51.1221 -75.5281 206° Southwest  Level FlightAware Approximate
Thu 18:08:48 50.7833 -76.0167 204° Southwest 440 506 36,000  Level Montreal Center
Thu 18:09:00 51.0474 -75.5869 206° Southwest  Level FlightAware Approximate
Thu 18:09:48 50.6667 -76.1000 204° Southwest 440 506 36,000  Level Montreal Center
Thu 18:10:00 50.9726 -75.6455 206° Southwest  Level FlightAware Approximate
Thu 18:10:48 50.5500 -76.1833 204° Southwest 440 506 36,000  Level Montreal Center
Thu 18:11:00 50.8979 -75.7039 206° Southwest  Level FlightAware Approximate
Thu 18:11:48 50.4500 -76.2500 203° Southwest 440 506 36,000  Level Montreal Center
Thu 18:12:00 50.8231 -75.7621 206° Southwest  Level FlightAware Approximate
Thu 18:12:48 50.3333 -76.3333 205° Southwest 440 506 36,000  Level Montreal Center
Thu 18:13:00 50.7188 -75.8428 206° Southwest  Level FlightAware Approximate
Thu 18:13:48 50.2167 -76.4167 205° Southwest 440 506 36,000  Level Montreal Center
Thu 18:14:48 50.1000 -76.5167 209° Southwest 440 506 36,000  Level Montreal Center
Thu 18:15:48 49.9833 -76.6000 205° Southwest 440 506 36,000  Level Montreal Center
Thu 18:16:48 49.8833 -76.6667 203° Southwest 440 506 36,000  Level Montreal Center
Thu 18:17:48 49.7667 -76.7500 205° Southwest 450 518 36,000  Level Montreal Center
Thu 18:18:48 49.6500 -76.8167 200° South 450 518 36,000  Level Montreal Center
Thu 18:19:48 49.5333 -76.9000 205° Southwest 430 495 36,000  Level Montreal Center
Thu 18:20:48 49.4167 -76.9667 200° South 460 529 36,000  Level Montreal Center
Thu 18:21:48 49.3000 -77.0500 205° Southwest 460 529 36,000  Level Montreal Center
Thu 18:22:48 49.2000 -77.1500 213° Southwest 440 506 36,000  Level Montreal Center
Thu 18:23:48 49.0833 -77.2167 201° Southwest 450 518 36,000  Level Montreal Center
Thu 18:24:48 48.9667 -77.3000 205° Southwest 450 518 36,000  Level Montreal Center
Thu 18:25:48 48.8333 -77.3667 198° South 440 506 36,000  Level Montreal Center
Thu 18:26:48 48.7333 -77.4500 209° Southwest 440 506 36,000  Level Montreal Center
Thu 18:27:48 48.6333 -77.5167 204° Southwest 450 518 36,000  Level Montreal Center
Thu 18:28:48 48.5000 -77.5833 198° South 440 506 36,000  Level Montreal Center
Thu 18:29:48 48.4000 -77.6833 214° Southwest 440 506 36,000  Level Montreal Center
Thu 18:30:48 48.2833 -77.7667 205° Southwest 440 506 36,000  Level Montreal Center
Thu 18:31:48 48.1833 -77.8333 204° Southwest 440 506 36,000  Level Montreal Center
Thu 18:32:48 48.0667 -77.9000 201° Southwest 440 506 36,000  Level Montreal Center
Thu 18:33:48 47.9333 -77.9500 194° South 440 506 36,000  Level Montreal Center
Thu 18:34:48 47.8333 -78.0167 204° Southwest 440 506 36,000  Level Montreal Center
Thu 18:35:48 47.7000 -78.0833 199° South 440 506 36,000  Level Montreal Center
Thu 18:36:48 47.6000 -78.1667 209° Southwest 440 506 36,000  Level Montreal Center
Thu 18:37:48 47.4833 -78.2333 201° Southwest 440 506 36,000  Level Montreal Center
Thu 18:38:48 47.3667 -78.3000 201° Southwest 440 506 36,000  Level Montreal Center
Thu 18:39:48 47.2500 -78.3667 201° Southwest 440 506 36,000  Level Montreal Center
Thu 18:40:48 47.1500 -78.4167 199° South 440 506 36,000  Level Montreal Center
Thu 18:41:48 47.0167 -78.4833 199° South 440 506 36,000  Level Montreal Center
Thu 18:42:48 46.9000 -78.5500 201° Southwest 440 506 36,000  Level Montreal Center
Thu 18:43:24 46.8500 -78.5667 193° South 440 506 36,000  Level Toronto Center
Thu 18:44:24 46.7167 -78.6333 199° South 440 506 36,000  Level Toronto Center
Thu 18:45:24 46.6167 -78.6833 199° South 430 495 36,000  Level Toronto Center
Thu 18:46:24 46.5000 -78.7667 206° Southwest 430 495 36,000  Level Toronto Center
Thu 18:47:24 46.3833 -78.8167 196° South 430 495 36,000  Level Toronto Center
Thu 18:48:24 46.2833 -78.8667 199° South 430 495 36,000  Level Toronto Center
Thu 18:49:24 46.1667 -78.9333 202° Southwest 430 495 36,000  Level Toronto Center
Thu 18:50:24 46.0500 -78.9833 197° South 430 495 36,000  Level Toronto Center
Thu 18:52:24 45.8333 -79.1000 201° Southwest 430 495 36,000  Level Toronto Center
Thu 18:53:24 45.7167 -79.1833 207° Southwest 430 495 36,000  Level Toronto Center
Thu 18:54:24 45.6000 -79.2333 197° South 430 495 36,000  Level Toronto Center
Thu 18:55:24 45.4833 -79.3000 202° Southwest 430 495 36,000  Level Toronto Center
Thu 18:56:24 45.3667 -79.3500 197° South 430 495 36,000  Level Toronto Center
Thu 18:57:24 45.2667 -79.4167 205° Southwest 430 495 36,000  Level Toronto Center
Thu 19:03:06 44.6274 -79.7701 205° Southwest 430 495 36,000  Level FlightAware ADS-B
Thu 19:04:46 44.4589 -79.9039 210° Southwest 413 475 36,000  Level FlightAware ADS-B
Thu 19:05:45 44.3647 -79.9891 213° Southwest 413 475 36,000  Level FlightAware ADS-B
Thu 19:06:23 44.3035 -80.0442 213° Southwest 414 476 36,000  Level FlightAware ADS-B
Thu 19:07:25 44.2045 -80.1326 213° Southwest 415 478 36,000  Level FlightAware ADS-B
Thu 19:09:25 44.0258 -80.2915 217° Southwest 415 478 36,000  Level FlightAware ADS-B
Thu 19:09:59 43.9551 -80.3540 212° Southwest 415 478 36,000  Level FlightAware ADS-B (ETHL)
Thu 19:10:40 43.8961 -80.4059 212° Southwest 414 476 36,000  Level FlightAware ADS-B (ETHL)
Thu 19:11:20 43.8268 -80.4670 212° Southwest 413 475 36,000  Level FlightAware ADS-B (ETHL)
Thu 19:11:59 43.7630 -80.5230 212° Southwest 412 474 36,000  Level FlightAware ADS-B (ETHL)
Thu 19:12:36 43.7028 -80.5756 212° Southwest 411 473 36,000  Level FlightAware ADS-B (ETHL)
Thu 19:13:24 43.6342 -80.6355 212° Southwest 410 472 36,000  Level FlightAware ADS-B
Thu 19:14:05 43.5667 -80.6941 212° Southwest 410 472 36,000  Level FlightAware ADS-B
Thu 19:14:46 43.5034 -80.7491 212° Southwest 410 472 36,000  Level FlightAware ADS-B
Thu 19:15:26 43.4332 -80.8098 212° Southwest 410 472 36,000  Level FlightAware ADS-B
Thu 19:16:02 43.3723 -80.8625 212° Southwest 409 471 36,000  Level FlightAware ADS-B
Thu 19:16:45 43.3049 -80.9206 212° Southwest 408 470 36,000  Level FlightAware ADS-B
Thu 19:17:26 43.2391 -80.9772 212° Southwest 406 467 36,000  Level FlightAware ADS-B
Thu 19:18:05 43.1815 -81.0265 212° Southwest 404 465 36,000  Level FlightAware ADS-B
Thu 19:18:44 43.1279 -81.0724 212° Southwest 403 464 36,000  Level FlightAware ADS-B
Thu 19:19:26 43.0489 -81.1392 212° Southwest 404 465 36,000  Level FlightAware ADS-B
Thu 19:20:04 42.9911 -81.1771 206° Southwest 412 474 36,000  Level FlightAware ADS-B
Thu 19:20:47 42.9107 -81.2274 205° Southwest 412 474 36,000  Level FlightAware ADS-B
Thu 19:21:26 42.8420 -81.2702 205° Southwest 411 473 36,000  Level FlightAware ADS-B
Thu 19:22:04 42.7771 -81.3103 204° Southwest 410 472 36,000  Level FlightAware ADS-B
Thu 19:22:44 42.7217 -81.3442 204° Southwest 410 472 36,000  Level FlightAware ADS-B
Thu 19:23:16 42.6521 -81.3868 204° Southwest 410 472 36,000  Level FlightAware ADS-B
Thu 19:24:14 42.5519 -81.4480 204° Southwest 415 478 36,000  Level FlightAware ADS-B
Thu 19:25:23 42.4303 -81.5222 204° Southwest 419 482 36,000  Level FlightAware ADS-B
Thu 19:27:02 42.2568 -81.6272 204° Southwest 421 484 36,000  Level FlightAware ADS-B
Thu 19:28:28 42.1108 -81.7144 204° Southwest 413 475 36,000  Level Cleveland Center
Thu 19:29:30 42.0067 -81.7775 204° Southwest 409 471 36,000  Level Cleveland Center
Thu 19:30:32 41.9042 -81.8389 204° Southwest 403 464 36,000  Level Cleveland Center
Thu 19:31:34 41.8033 -81.8983 204° Southwest 397 457 36,000  Level Cleveland Center
Thu 19:32:35 41.7022 -81.9586 204° Southwest 396 456 36,000  Level Cleveland Center
Thu 19:33:37 41.6008 -82.0189 204° Southwest 397 457 36,000  Level Cleveland Center
Thu 19:34:39 41.4731 -82.0625 194° South 422 486 36,000  Level Cleveland Center
Thu 19:35:41 41.3556 -82.0561 178° South 441 507 36,000  Level Cleveland Center
Thu 19:36:43 41.2342 -82.0522 179° South 439 505 36,000  Level Cleveland Center
Thu 19:37:44 41.1064 -82.0497 179° South 440 506 36,000  Level Cleveland Center
Thu 19:38:46 40.9836 -82.0469 179° South 440 506 36,000  Level Cleveland Center
Thu 19:40:20 40.7703 -82.0400 179° South 435 501 36,000  Level FlightAware ADS-B
Thu 19:40:50 40.7189 -82.0333 179° South 436 502 36,000  Level Cleveland Center
Thu 19:41:52 40.5967 -82.0183 175° South 438 504 36,000  Level Cleveland Center
Thu 19:42:22 40.5339 -82.0119 176° South 440 506 36,000  Level Indianapolis Center
Thu 19:48:16 39.8244 -81.9698 176° South 421 484 36,000  Level FlightAware ADS-B
Thu 19:49:52 39.6376 -81.9669 179° South 421 484 36,000  Level FlightAware ADS-B
Thu 19:51:35 39.4355 -81.9633 179° South 420 483 36,000  Level FlightAware ADS-B
Thu 19:52:36 39.3163 -81.9614 179° South 422 486 36,000  Level FlightAware ADS-B
Thu 19:53:11 39.2636 -81.9586 179° South 421 484 36,000  Level Cleveland Center
Thu 19:54:13 39.1483 -81.9789 188° South 417 480 36,000  Level Cleveland Center
Thu 19:55:43 38.9817 -82.0181 190° South 414 476 36,000  Level Indianapolis Center
Thu 19:56:45 38.8683 -82.0444 190° South 416 479 36,000  Level Indianapolis Center
Thu 20:01:53 38.2819 -82.1792 216° Southwest 407 468 36,000  Level Indianapolis Center
Thu 20:02:55 38.1697 -82.2036 190° South 409 471 36,000  Level Indianapolis Center
Thu 20:03:57 38.0353 -82.2311 189° South 406 467 36,000  Level Indianapolis Center
Thu 20:04:58 37.9225 -82.2539 189° South 410 472 36,000  Level Indianapolis Center
Thu 20:05:00 38.1843 -82.0006 176° South  Level FlightAware Approximate
Thu 20:06:00 38.1014 -81.9940 176° South  Level FlightAware Approximate
Thu 20:06:00 37.8058 -82.2586 182° South 431 496 36,000  Level Indianapolis Center
Thu 20:07:00 38.0077 -82.0811 216° Southwest  Level FlightAware Approximate
Thu 20:07:02 37.6869 -82.2522 178° South 427 491 36,000  Level Indianapolis Center
Thu 20:08:03 37.5697 -82.2472 178° South 421 484 36,000  Level Indianapolis Center
Thu 20:09:05 37.4528 -82.2439 179° South 418 481 36,000  Level Indianapolis Center
Thu 20:10:07 37.3356 -82.2381 178° South 419 482 36,000  Level Indianapolis Center
Thu 20:11:09 37.1981 -82.2314 178° South 421 484 36,000  Level Indianapolis Center
Thu 20:12:10 37.0792 -82.2253 178° South 423 487 36,000  Level Indianapolis Center
Thu 20:13:12 36.9617 -82.2194 178° South 420 483 36,000  Level Indianapolis Center
Thu 20:14:14 36.8461 -82.2136 178° South 414 476 36,000  Level Indianapolis Center
Thu 20:15:15 36.7319 -82.2083 178° South 410 472 36,000  Level Indianapolis Center
Thu 20:16:17 36.6161 -82.2036 178° South 411 473 36,000  Level Indianapolis Center
Thu 20:17:03 36.5178 -82.1994 178° South 417 480 36,000  Level Atlanta Center
Thu 20:18:03 36.4031 -82.1919 177° South 417 480 36,000  Level Atlanta Center
Thu 20:19:03 36.2906 -82.1892 179° South 417 480 36,000  Level Atlanta Center
Thu 20:20:03 36.1778 -82.1842 178° South 417 480 36,000  Level Atlanta Center
Thu 20:21:03 36.0692 -82.1789 178° South 407 468 36,000  Level Atlanta Center
Thu 20:22:03 35.9564 -82.1739 178° South 407 468 36,000  Level Atlanta Center
Thu 20:23:03 35.8458 -82.1686 178° South 402 463 36,000  Level Atlanta Center
Thu 20:24:03 35.7311 -82.1661 179° South 408 470 36,000  Level Atlanta Center
Thu 20:25:03 35.6206 -82.1611 178° South 408 470 36,000  Level Atlanta Center
Thu 20:26:03 35.5078 -82.1561 178° South 408 470 36,000  Level Atlanta Center
Thu 20:27:03 35.3969 -82.1508 178° South 408 470 36,000  Level Atlanta Center
Thu 20:28:03 35.2969 -82.1456 178° South 403 464 36,000  Level Atlanta Center
Thu 20:29:03 35.1861 -82.1403 178° South 403 464 36,000  Level Atlanta Center
Thu 20:30:03 35.0733 -82.1381 179° South 403 464 36,000  Level Atlanta Center
Thu 20:31:03 34.9628 -82.1328 178° South 403 464 36,000  Level Atlanta Center
Thu 20:32:03 34.8500 -82.1253 177° South 403 464 36,000  Level Atlanta Center
Thu 20:33:03 34.7392 -82.1178 177° South 403 464 36,000  Level Atlanta Center
Thu 20:34:03 34.6244 -82.1103 177° South 408 470 36,000  Level Atlanta Center
Thu 20:35:03 34.5136 -82.1078 179° South 408 470 36,000  Level Atlanta Center
Thu 20:36:03 34.4031 -82.1003 177° South 408 470 36,000  Level Atlanta Center
Thu 20:37:03 34.2903 -82.0953 178° South 408 470 36,000  Level Atlanta Center
Thu 20:38:03 34.1794 -82.0903 178° South 408 470 36,000  Level Atlanta Center
Thu 20:39:03 34.0647 -82.0853 178° South 408 470 36,000  Level Atlanta Center
Thu 20:40:03 33.9519 -82.0781 177° South 408 470 36,000  Level Atlanta Center
Thu 20:41:03 33.8369 -82.0731 178° South 408 470 36,000  Level Atlanta Center
Thu 20:42:03 33.7219 -82.0683 178° South 408 470 36,000  Level Atlanta Center
Thu 20:43:03 33.6050 -82.0633 178° South 408 470 36,000  Level Atlanta Center
Thu 20:44:03 33.4903 -82.0611 179° South 414 476 36,000  Level Atlanta Center
Thu 20:45:03 33.3753 -82.0561 178° South 414 476 36,000  Level Atlanta Center
Thu 20:46:03 33.2583 -82.0514 178° South 419 482 36,000  Level Atlanta Center
Thu 20:48:06 33.0092 -82.0403 178° South 431 496 36,000  Level Jacksonville Center
Thu 20:49:07 32.8922 -82.0367 179° South 431 496 36,000  Level Jacksonville Center
Thu 20:50:07 32.7775 -82.0303 177° South 425 489 36,000  Level Jacksonville Center
Thu 20:51:07 32.6603 -82.0239 177° South 425 489 36,000  Level Jacksonville Center
Thu 20:52:07 32.5456 -82.0178 177° South 420 483 36,000  Level Jacksonville Center
Thu 20:53:07 32.4308 -82.0114 177° South 420 483 36,000  Level Jacksonville Center
Thu 20:54:07 32.3158 -82.0125 180° South 415 478 36,000  Level Jacksonville Center
Thu 20:55:07 32.1947 -81.9939 173° South 429 494 36,000  Level Jacksonville Center
Thu 20:56:07 32.0881 -81.9778 173° South 435 501 36,000  Level Jacksonville Center
Thu 21:00:07 31.5906 -81.9122 183° South 445 512 36,000  Level Jacksonville Center
Thu 21:01:07 31.4861 -81.9011 175° South 440 506 36,000  Level Jacksonville Center
Thu 21:02:07 31.3586 -81.8831 173° South 428 493 36,000  Level Jacksonville Center
Thu 21:03:06 31.2522 -81.8744 176° South 428 493 36,000  Level Jacksonville Center
Thu 21:04:07 31.1372 -81.8561 172° South 428 493 36,000  Level Jacksonville Center
Thu 21:05:00 31.1332 -81.9566 183° South  Level FlightAware Approximate
Thu 21:05:07 31.0200 -81.8258 168° South 428 493 36,000  Level Jacksonville Center
Thu 21:11:15 30.2893 -81.5173 168° South 452 520 36,000  Level FlightAware ADS-B
Thu 21:12:07 30.1878 -81.4772 188° South 450 518 36,000  Level Jacksonville Center
Thu 21:13:16 30.0497 -81.4182 160° South 449 517 36,000  Level FlightAware ADS-B
Thu 21:13:56 29.9712 -81.3859 160° South 449 517 36,000  Level FlightAware ADS-B
Thu 21:14:36 29.8918 -81.3533 160° South 448 516 36,000  Level FlightAware ADS-B
Thu 21:15:17 29.8116 -81.3203 160° South 449 517 36,000  Level FlightAware ADS-B
Thu 21:17:00 29.6716 -81.3441 188° South  Level Estimated
Thu 21:17:56 29.5106 -81.1972 188° South 449 517 36,000  Level FlightAware ADS-B
Thu 21:18:30 29.4340 -81.1659 160° South 450 518 36,000  Level FlightAware ADS-B
Thu 21:19:16 29.3618 -81.1377 161° South 443 510 36,000  Level FlightAware ADS-B
Thu 21:19:56 29.2688 -81.1174 169° South 431 496 36,000  Level FlightAware ADS-B
Thu 21:20:13 29.2294 -81.1140 176° South 431 496 36,000  Level FlightAware ADS-B (KSFB)
Thu 21:20:55 29.1482 -81.1131 179° South 426 490 36,000  Level FlightAware ADS-B (KSFB)
Thu 21:21:36 29.0661 -81.1120 179° South 425 489 36,000  Level FlightAware ADS-B
Thu 21:22:17 28.9856 -81.1115 180° South 423 487 36,000  Level FlightAware ADS-B
Thu 21:22:56 28.9079 -81.1111 180° South 419 482 36,000  Level FlightAware ADS-B
Thu 21:23:37 28.8307 -81.1108 180° South 417 480 36,000  Level FlightAware ADS-B (KSFB)
Thu 21:24:14 28.7734 -81.1150 184° South 405 466 36,000  Level FlightAware ADS-B (KSFB)
Thu 21:24:27 28.7412 -81.1227 192° South 406 467 36,000  Level FlightAware ADS-B
Thu 21:24:58 28.6789 -81.1384 192° South 407 468 36,000  Level FlightAware ADS-B
Thu 21:25:37 28.6076 -81.1567 193° South 408 470 36,000  Level FlightAware ADS-B (KSFB)
Thu 21:26:16 28.5359 -81.1749 193° South 409 471 36,000  Level FlightAware ADS-B (KSFB)
Thu 21:26:57 28.4625 -81.1938 193° South 410 472 36,000  Level FlightAware ADS-B (KSFB)
Thu 21:27:38 28.3823 -81.2147 193° South 411 473 36,000  Level FlightAware ADS-B
Thu 21:28:17 28.3266 -81.2292 193° South 410 472 36,000  Level FlightAware ADS-B (KSFB)
Thu 21:28:59 28.2327 -81.2535 193° South 416 479 36,000  Level FlightAware ADS-B
Thu 21:29:19 28.1943 -81.2544 181° South 429 494 36,000  Level FlightAware ADS-B
Thu 21:29:57 28.1277 -81.2508 177° South 429 494 36,000  Level FlightAware ADS-B (KSFB)
Thu 21:30:27 28.0545 -81.2473 178° South 429 494 36,000  Level FlightAware ADS-B
Thu 21:31:00 27.9929 -81.2444 178° South 429 494 36,000  Level FlightAware ADS-B
Thu 21:31:40 27.9146 -81.2407 178° South 430 495 36,000  Level FlightAware ADS-B
Thu 21:32:19 27.8350 -81.2370 178° South 431 496 36,000  Level FlightAware ADS-B
Thu 21:32:59 27.7584 -81.2334 178° South 430 495 36,000  Level FlightAware ADS-B
Thu 21:33:35 27.6844 -81.2299 178° South 430 495 36,000  Level FlightAware ADS-B
Thu 21:34:21 27.5928 -81.2257 178° South 432 497 36,000  Level FlightAware ADS-B
Thu 21:35:01 27.5132 -81.2220 178° South 434 499 36,000  Level FlightAware ADS-B
Thu 21:35:41 27.4333 -81.2183 178° South 435 501 36,000  Level FlightAware ADS-B
Thu 21:36:22 27.3493 -81.2144 178° South 436 502 36,000  Level FlightAware ADS-B
Thu 21:37:03 27.2822 -81.2113 178° South 435 501 36,000  Level FlightAware ADS-B
Thu 21:38:24 27.1029 -81.2031 178° South 438 504 36,000  Level FlightAware ADS-B
Thu 21:41:02 26.7804 -81.1883 178° South 442 509 36,000  Level FlightAware ADS-B
Thu 21:41:45 26.6930 -81.1922 182° South 426 490 36,000  Level FlightAware ADS-B
Thu 21:42:04 26.6583 -81.2074 201° Southwest 417 480 36,000  Level FlightAware ADS-B
Thu 21:42:46 26.5860 -81.2442 204° Southwest 419 482 36,000  Level FlightAware ADS-B
Thu 21:44:45 26.3761 -81.3499 204° Southwest 425 489 36,000  Level FlightAware ADS-B
Thu 21:45:21 26.3080 -81.3841 204° Southwest 425 489 36,000  Level FlightAware ADS-B
Thu 21:46:06 26.2297 -81.4234 204° Southwest 422 486 36,000  Level FlightAware ADS-B
Thu 21:46:46 26.1580 -81.4593 204° Southwest 419 482 36,000  Level FlightAware ADS-B
Thu 21:47:26 26.0856 -81.4956 204° Southwest 420 483 36,000  Level FlightAware ADS-B
Thu 21:48:07 26.0125 -81.5320 204° Southwest 419 482 36,000  Level FlightAware ADS-B
Thu 21:48:41 25.9529 -81.5618 204° Southwest 418 481 36,000  Level FlightAware ADS-B
Thu 21:49:13 25.8968 -81.5898 204° Southwest 418 481 36,000  Level FlightAware ADS-B
Thu 21:49:46 25.8444 -81.6159 204° Southwest 419 482 36,000  Level FlightAware ADS-B
Thu 21:51:00 25.7125 -81.6853 204° Southwest 428 493 36,000  Level Miami Center
Thu 21:52:00 25.6106 -81.7364 204° Southwest 422 486 36,000  Level Miami Center
Thu 21:53:00 25.5044 -81.7872 203° Southwest 417 480 36,000  Level Miami Center
Thu 21:54:00 25.3942 -81.8403 203° Southwest 417 480 36,000  Level Miami Center
Thu 21:55:00 25.2900 -81.8933 205° Southwest 417 480 36,000 -760 Level Miami Center
Thu 22:04:00 24.3511 -82.3497 201° Southwest 396 456 28,400 -930 Descending Miami Center
Thu 22:05:00 24.5237 -82.2389 203° Southwest  Level FlightAware Approximate
Thu 22:05:00 24.2575 -82.3958 204° Southwest 383 441 26,700  Level Miami Center
Thu 22:06:00 24.4470 -82.2728 201° Southwest  Level FlightAware Approximate
Thu 22:06:00 24.1681 -82.4394 204° Southwest 383 441 25,100  Level Miami Center
Thu 22:07:00 24.3699 -82.3059 201° Southwest  Level FlightAware Approximate
Thu 22:07:01 24.0744 -82.4853 204° Southwest 383 441 23,400  Level Miami Center
Thu 22:08:00 24.2928 -82.3390 201° Southwest  Level FlightAware Approximate
Thu 22:08:02 23.9792 -82.5219 199° South 378 435 22,000  Level Miami Center
Thu 22:09:00 24.2157 -82.3720 201° Southwest  Level FlightAware Approximate
Thu 22:10:00 23.8186 -82.4928 171° South  Level FlightAware Approximate
Thu 22:17:00 23.2432 -82.4193 175° South  Level FlightAware Approximate
Thu 22:18:00 23.1605 -82.4167 180° South  Level FlightAware Approximate
Thu 22:19:00 23.0787 -82.4057 170° South  Level FlightAware Approximate
Thu 22:20:00 22.9964 -82.4000 180° South  Level FlightAware Approximate
Thu 22:21:00 22.9891 -82.4091 180° South  Level Estimated
Thu 22:22:00 22.9891 -82.4091 180° South  Level Estimated
Thu 22:23:00 22.9891 -82.4091 180° South  Level Estimated
Thu 22:24:00 22.9891 -82.4091 180° South  Level Estimated
Thu 22:25:00 22.9891 -82.4091 180° South  Level Estimated
Thu 22:26:00 22.9891 -82.4091 180° South  Level Estimated
Thu 22:27:00 22.9891 -82.4091 180° South  Level Estimated
Thu 22:28:00 22.9891 -82.4091 180° South  Level Estimated
Thu 22:29:00 22.9891 -82.4091 180° South  Level Estimated
Thu 22:30:00 22.9891 -82.4091 180° South  Level Estimated
Thu 22:31:00 22.9891 -82.4091 180° South  Level Estimated
Thu 22:32:00 22.9891 -82.4091 180° South  Level Estimated
Thu 22:33:00 22.9891 -82.4091 180° South  Level Estimated
Thu 22:34:00 22.9891 -82.4091 180° South  Level Estimated
Thu 22:35:00 22.9891 -82.4091 180° South  Level Estimated
Thu 22:36:00 22.9891 -82.4091 180° South  Level Estimated
Thu 22:37:00 22.9891 -82.4091 180° South  Level Estimated
Thu 22:38:00 22.9891 -82.4091 180° South  Level Estimated

Login

Don't have an account? Register now (free) for customized features, flight alerts, and more!